Aktualne dane pomiarowe

Uwaga, wersja testowa! Automatyczne pobieranie danych za pomocą narzędzi lub skryptów to umożliwiających jest zabronione.

Dane meteo z obszaru Polski uzyskane na podstawie depesz SYNOP pobieranych co godzinę z NWS. Najedź myszką na symbol przedstawiony w tabeli, aby uzyskać informacje co do jego znaczenia. Prosimy pamiętać, że to testowa wersja strony, która jeszcze nie jest ukończona. Stworzono również jest krótki FAQ dotyczący korzystania z tej podstrony Anomalie temperatury w chwili obecnej odniesione są do okresu referencyjnego 1951-2016. Okres ten będzie później zmieniony na 1981-2010. Kliknij ikonę aby pobrać plik CSV. Kliknij ikonę aby wygenerować mapę synoptyczną dla danego terminu.

Wybierz Datę:    

        

Radom (12485)

Dane terminowe dla wybranej stacji. Kliknij datę, aby otrzymać dane z tego terminu dla wszystkich stacji.

TemperaturaZachmurzenieWiatrCiśnienieOpadyPogoda
 Data t td wb tx tn tg rh  Nt Nl Cl Cm Ch ws wd g1 g2 wx mslp ppp ch 24h 12h t ww ww w1 w2  
2019-05-06 23:00:00 8.7 -2.0 3.7--- 4710.0wx-wx3wx---1013.1 990.8 0.3---------
2019-05-06 22:00:00 9.2 -2.7 3.8--- 4310.0wx-wx4wx---1012.9 990.6 0.3---------
2019-05-06 21:00:00 9.6 -3.7 3.8--- 3910.0wx-wx4wx---1012.6 990.3 0.5---------
2019-05-06 20:00:00 10.1 -3.9 4.0--- 3710.0wx-wx3wx---1012.7 990.5 1.3---------
2019-05-06 19:00:00 10.7 -3.4 4.5--- 3710.0wx-wx4wx---1012.5 990.3 1.2---------
2019-05-06 18:00:00 11.3 -2.5 5.0--- 3810.0wx-wx4wx---1011.8 989.7 0.6---------
2019-05-06 17:00:00 11.9 -4.7 4.8--- 3110.0wx-wx3wx---1011.2 989.2 0.1---------
2019-05-06 16:00:00 12.1 -4.1 5.1--- 3210.0wx-wx3wx---1011.1 989.1 -0.1---------
2019-05-06 15:00:00 12.3 -3.9 5.2--- 3210.0wx-wx2wx---1011.1 989.1 -0.4---------
2019-05-06 14:00:00 12.1 -6.8 4.4--- 2610.0wx-wx6wx---1011.2 989.2 0.5---------
2019-05-06 13:00:00 11.7 -6.2 4.3--- 2810.0wx-wx6wx---1011.2 989.1 -1.0---------
2019-05-06 12:00:00 11.1 -4.2 4.5--- 3410.0wx-wx6wx---1011.8 989.7 -0.9---------
2019-05-06 11:00:00 11.1 -4.2 4.5--- 3410.0wx-wx5wx---1011.8 989.7 0.9---------
2019-05-06 10:00:00 10.1 -3.2 4.2--- 3910.0wx-wx5wx---1012.3 990.1 -0.6---------
2019-05-06 09:00:00 9.5 -2.4 4.1--- 4310.0wx-wx5wx---1012.8 990.5 0.4---------
2019-05-06 08:00:00 7.9 -2.7 3.1--- 4710.0wx-wx3wx---1013.0 990.6 -0.1---------
2019-05-06 07:00:00 6.3 -3.9 1.8--- 4810.0wx-wx5wx---1013.2 990.7 0.1---------
2019-05-06 06:00:00 5.2 -4.4 1.0--- 5010.0wx-wx4wx---1013.5 990.9 0.2---------
2019-05-06 05:00:00 4.6 -3.7 0.8--- 5510.0wx-wx2wx---1013.4 990.7 0.0---------
2019-05-06 04:00:00 4.3 -3.2 0.8--- 5810.0wx-wx2wx---1013.5 990.8 -0.1---------
2019-05-06 03:00:00 4.4 -2.7 1.0--- 6010.0wx-wx2wx---1013.4 990.7 -0.1---------
2019-05-06 02:00:00 5.0 -2.6 1.4--- 5810.0wx-wx2wx---1013.3 990.7 -0.4---------
2019-05-06 01:00:00 5.1 -2.0 1.6--- 6010.0wx-wx1wx---1013.5 990.9 -0.2---------
2019-05-06 00:00:00 5.0 -1.0 1.9--- 6510.0wx-wx2wx---1013.4 990.8 -0.1---------
2019-05-05 23:00:00 5.7 -0.6 2.5--- 6410.0wx-wx3wx---1013.7 991.1 0.2---------
2019-05-05 22:00:00 6.1 -0.2 2.8--- 6410.0wx-wxwx2wx---1013.7 991.1 0.3---------
2019-05-05 21:00:00 6.6 0.1 3.2--- 6310.0wx-wxwx1wx---1013.4 990.9 0.8---------
2019-05-05 20:00:00 6.9 -0.1 3.3--- 6110.0wx-wxwx2wx---1013.4 990.9 1.0---------
2019-05-05 19:00:00 7.8 -0.4 3.7--- 5610.0wx-wx2wx---1013.2 990.8 0.9---------
2019-05-05 18:00:00 8.7 -0.6 4.2--- 5210.0wx-wx2wx---1012.4 990.1 0.2---------
2019-05-05 17:00:00 9.5 -0.7 4.6--- 4910.0wx-wx3wx---1012.2 989.9 0.3---------
2019-05-05 16:00:00 9.9 0.0 5.0--- 5010.0wx-wx5wx---1012.0 989.8 0.1---------
2019-05-05 15:00:00 10.0 -0.2 5.0--- 4910.0wxwxwxwx5wx---1012.1 989.9 0.3---------
2019-05-05 14:00:00 10.1 0.4 5.3--- 5110.0wxwxwxwx6wx---1011.7 989.5 0.1---------
2019-05-05 13:00:00 9.6 0.8 5.1--- 5410.0wxwxwx6wx---1011.9 989.7 0.6---------
2019-05-05 12:00:00 9.1 1.3 5.0--- 5810.0wxwxwxwx6wx---1011.9 989.6 1.0---------
2019-05-05 11:00:00 8.0 1.0 4.3--- 6110.0wxwxwx6wx---1012.0 989.6 1.1---------
2019-05-05 10:00:00 7.3 1.0 4.0--- 6410.0wxwxwx7wx---1011.5 989.1 1.1---------
2019-05-05 09:00:00 6.6 1.9 4.0--- 7210.0wxwxwx7wx---1011.1 988.6 1.2---------
2019-05-05 08:00:00 5.4 2.2 3.5--- 8010.0wxwxwx6wx---1011.1 988.5 1.8---------
2019-05-05 07:00:00 5.0 2.0 3.2--- 8110.0wxwxwx6wx---1010.5 987.9 1.9---------
2019-05-05 06:00:00 4.9 2.4 3.4--- 8410.0wxwxwx5wx---1010.0 987.4 2.4---------
2019-05-05 05:00:00 4.9 2.6 3.5--- 8510.0wxwxwx4wx---1009.3 986.7 2.1---------
2019-05-05 04:00:00 5.3 2.7 3.7--- 8310.0wxwxwx4wx---1008.5 986.0 2.0---------
2019-05-05 03:00:00 5.5 3.0 3.9--- 8410.0wxwxwx3wx---1007.5 985.0 1.7---------
2019-05-05 02:00:00 6.0 3.8 4.6--- 8610.0wxwxwx4wx---1007.0 984.6 1.2---------
2019-05-05 00:00:00 8.8 6.1 7.1--- 8310.0wxwxwxwx2wx---1005.5 983.3 0.5---------
1.7 ms

 

Print Friendly, PDF & Email